createdAt,value
2022-12-28T00:00:49.987Z,4.79
2022-12-28T00:03:20.476Z,4.74
2022-12-28T00:05:53.077Z,4.86
2022-12-28T00:08:25.097Z,4.75
2022-12-28T00:11:07.884Z,4.88
2022-12-28T00:13:40.000Z,4.78
2022-12-28T00:16:12.906Z,4.78
2022-12-28T00:18:44.827Z,4.70
2022-12-28T00:21:16.856Z,4.73
2022-12-28T00:23:52.212Z,4.76
2022-12-28T00:26:23.811Z,4.79
2022-12-28T00:29:00.128Z,4.80
2022-12-28T00:31:27.059Z,4.68
2022-12-28T00:33:57.641Z,4.80
2022-12-28T00:37:10.691Z,4.84
2022-12-28T00:39:03.440Z,4.98
2022-12-28T00:41:33.972Z,4.96
2022-12-28T00:44:04.474Z,5.04
2022-12-28T00:46:35.277Z,5.12
2022-12-28T00:49:07.462Z,5.18
2022-12-28T00:51:39.344Z,5.16
2022-12-28T00:54:11.280Z,5.17
2022-12-28T00:56:47.554Z,5.10
2022-12-28T00:59:18.230Z,5.07
2022-12-28T01:01:48.820Z,5.10
2022-12-28T01:04:21.164Z,5.07
2022-12-28T01:06:51.675Z,5.22
2022-12-28T01:09:25.301Z,5.10
2022-12-28T01:11:55.828Z,5.09
2022-12-28T01:14:27.988Z,5.06
2022-12-28T01:16:58.540Z,5.10
2022-12-28T01:19:31.025Z,5.06
2022-12-28T01:22:02.355Z,5.16
2022-12-28T01:24:33.033Z,5.30
2022-12-28T01:27:04.686Z,5.30
2022-12-28T01:29:35.151Z,5.10
2022-12-28T01:32:06.523Z,5.10
2022-12-28T01:34:38.336Z,5.22
2022-12-28T01:37:10.616Z,5.14
2022-12-28T01:39:41.122Z,5.24
2022-12-28T01:42:15.116Z,5.30
2022-12-28T01:44:48.876Z,5.26
2022-12-28T01:47:32.554Z,5.17
2022-12-28T01:50:07.548Z,5.13
2022-12-28T01:52:41.044Z,5.13
2022-12-28T01:55:14.819Z,5.19
2022-12-28T01:57:48.431Z,5.20
2022-12-28T02:00:20.273Z,5.21
2022-12-28T02:03:06.070Z,4.94
2022-12-28T02:05:39.749Z,4.84
2022-12-28T02:08:13.373Z,4.74
2022-12-28T02:10:45.949Z,4.70
2022-12-28T02:13:19.858Z,4.68
2022-12-28T02:15:51.863Z,4.68
2022-12-28T02:18:25.549Z,4.53
2022-12-28T02:21:17.250Z,4.68
2022-12-28T02:23:59.757Z,4.52
2022-12-28T02:26:51.470Z,4.54
2022-12-28T02:29:40.099Z,4.44
2022-12-28T02:32:31.447Z,4.44
2022-12-28T02:35:08.451Z,4.38
2022-12-28T02:37:45.024Z,4.35
2022-12-28T02:40:21.825Z,4.38
2022-12-28T02:42:55.330Z,4.34
2022-12-28T02:45:56.182Z,4.24
2022-12-28T02:48:45.199Z,4.42
2022-12-28T02:51:21.600Z,4.37
2022-12-28T02:54:04.396Z,4.26
2022-12-28T02:56:41.387Z,4.36
2022-12-28T02:59:15.719Z,4.40
2022-12-28T03:02:16.948Z,4.34
2022-12-28T03:05:15.784Z,4.35
2022-12-28T03:08:13.018Z,4.28
2022-12-28T03:10:46.572Z,4.35
2022-12-28T03:13:38.279Z,4.25
2022-12-28T03:16:14.712Z,4.26
2022-12-28T03:19:05.865Z,4.30
2022-12-28T03:21:56.937Z,4.32
2022-12-28T03:24:48.776Z,4.30
2022-12-28T03:27:39.657Z,4.32
2022-12-28T03:30:31.898Z,4.36
2022-12-28T03:33:02.872Z,4.32
2022-12-28T03:35:59.366Z,4.30
2022-12-28T03:38:32.896Z,4.28
2022-12-28T03:41:12.582Z,4.28
2022-12-28T03:43:49.180Z,4.38
2022-12-28T03:46:25.964Z,4.28
2022-12-28T03:49:02.897Z,4.20
2022-12-28T03:51:36.598Z,4.32
2022-12-28T03:54:09.773Z,4.19
2022-12-28T03:56:44.659Z,4.18
2022-12-28T03:59:16.113Z,4.06
2022-12-28T04:01:47.279Z,4.10
2022-12-28T04:04:19.078Z,4.13
2022-12-28T04:06:49.691Z,4.12
2022-12-28T04:09:22.470Z,4.16
2022-12-28T04:11:53.179Z,4.21
2022-12-28T04:14:24.352Z,4.10
2022-12-28T04:16:56.196Z,4.09
2022-12-28T04:19:28.416Z,4.19
2022-12-28T04:22:00.145Z,4.06
2022-12-28T04:24:30.876Z,3.98
2022-12-28T04:27:02.999Z,3.97
2022-12-28T04:29:34.054Z,4.02
2022-12-28T04:32:06.058Z,3.95
2022-12-28T04:34:40.859Z,3.97
2022-12-28T04:37:11.893Z,4.05
2022-12-28T04:39:55.272Z,4.02
2022-12-28T04:42:16.363Z,4.11
2022-12-28T04:44:47.503Z,4.04
2022-12-28T04:47:18.064Z,3.94
2022-12-28T04:49:50.833Z,3.88
2022-12-28T04:52:22.446Z,3.92
2022-12-28T04:54:52.931Z,3.98
2022-12-28T04:57:23.444Z,4.02
2022-12-28T04:59:53.795Z,4.04
2022-12-28T05:02:26.879Z,3.90
2022-12-28T05:05:01.015Z,3.97
2022-12-28T05:07:34.797Z,4.03
2022-12-28T05:10:06.570Z,4.17
2022-12-28T05:12:37.087Z,3.94
2022-12-28T05:15:11.888Z,4.08
2022-12-28T05:17:43.596Z,4.06
2022-12-28T05:20:16.482Z,4.08
2022-12-28T05:22:48.397Z,4.03
2022-12-28T05:25:18.849Z,3.94
2022-12-28T05:27:49.475Z,4.18
2022-12-28T05:30:20.006Z,4.14
2022-12-28T05:32:50.910Z,4.30
2022-12-28T05:35:21.736Z,4.22
2022-12-28T05:37:53.992Z,4.08
2022-12-28T05:40:24.581Z,4.19
2022-12-28T05:42:58.131Z,4.24
2022-12-28T05:45:30.116Z,4.20
2022-12-28T05:48:00.707Z,4.20
2022-12-28T05:50:31.924Z,4.18
2022-12-28T05:53:02.382Z,4.21
2022-12-28T05:55:33.222Z,4.28
2022-12-28T05:58:05.399Z,4.38
2022-12-28T06:00:36.525Z,4.40
2022-12-28T06:03:08.696Z,4.28
2022-12-28T06:05:39.546Z,4.49
2022-12-28T06:08:14.342Z,4.34
2022-12-28T06:10:44.755Z,4.46
2022-12-28T06:13:15.830Z,4.56
2022-12-28T06:15:46.977Z,4.53
2022-12-28T06:18:17.609Z,4.48
2022-12-28T06:20:53.731Z,4.44
2022-12-28T06:23:25.514Z,4.58
2022-12-28T06:26:04.705Z,4.44
2022-12-28T06:28:39.098Z,4.60
2022-12-28T06:31:18.736Z,4.48
2022-12-28T06:33:56.229Z,4.62
2022-12-28T06:36:34.129Z,4.60
2022-12-28T06:39:07.037Z,4.60
2022-12-28T06:41:38.290Z,4.78
2022-12-28T06:44:11.088Z,4.74
2022-12-28T06:46:41.722Z,4.68
2022-12-28T06:49:12.347Z,4.54
2022-12-28T06:51:44.306Z,4.70
2022-12-28T06:54:15.240Z,4.52
2022-12-28T06:56:45.765Z,4.45
2022-12-28T06:59:16.238Z,4.49
2022-12-28T07:01:49.455Z,4.38
2022-12-28T07:04:21.324Z,4.42
2022-12-28T07:06:52.797Z,4.48
2022-12-28T07:09:25.039Z,4.50
2022-12-28T07:11:55.596Z,4.34
2022-12-28T07:14:27.528Z,4.58
2022-12-28T07:17:00.683Z,4.38
2022-12-28T07:19:31.451Z,4.38
2022-12-28T07:22:05.122Z,4.36
2022-12-28T07:24:36.742Z,4.34
2022-12-28T07:27:07.655Z,4.40
2022-12-28T07:29:38.551Z,4.53
2022-12-28T07:32:09.143Z,4.52
2022-12-28T07:34:39.673Z,4.54
2022-12-28T07:37:10.067Z,4.70
2022-12-28T07:39:40.693Z,4.72
2022-12-28T07:42:12.161Z,4.60
2022-12-28T07:44:48.930Z,4.64
2022-12-28T07:47:18.204Z,4.82
2022-12-28T07:49:49.127Z,4.81
2022-12-28T07:52:20.057Z,4.91
2022-12-28T07:54:50.563Z,4.80
2022-12-28T07:57:22.290Z,4.84
2022-12-28T07:59:53.387Z,4.74
2022-12-28T08:02:24.160Z,4.90
2022-12-28T08:04:55.869Z,4.95
2022-12-28T08:07:26.394Z,4.93
2022-12-28T08:09:57.807Z,5.01
2022-12-28T08:12:28.321Z,4.88
2022-12-28T08:15:03.156Z,5.12
2022-12-28T08:17:33.741Z,5.16
2022-12-28T08:20:06.840Z,5.00
2022-12-28T08:22:37.396Z,4.95
2022-12-28T08:25:12.758Z,5.14
2022-12-28T08:27:43.323Z,5.16
2022-12-28T08:30:14.250Z,5.21
2022-12-28T08:32:45.142Z,5.23
2022-12-28T08:35:15.907Z,5.39
2022-12-28T08:37:46.378Z,5.34
2022-12-28T08:40:17.800Z,5.39
2022-12-28T08:42:48.451Z,5.53
2022-12-28T08:45:18.958Z,5.61
2022-12-28T08:47:49.503Z,5.48
2022-12-28T08:50:26.540Z,5.64
2022-12-28T08:52:54.119Z,5.79
2022-12-28T08:55:24.593Z,5.98
2022-12-28T08:57:55.318Z,5.95
2022-12-28T09:00:25.895Z,5.96
2022-12-28T09:02:58.427Z,5.83
2022-12-28T09:05:29.889Z,6.01
2022-12-28T09:08:02.724Z,6.12
2022-12-28T09:10:34.472Z,6.08
2022-12-28T09:13:05.389Z,6.02
2022-12-28T09:15:37.587Z,6.04
2022-12-28T09:18:08.145Z,5.87
2022-12-28T09:20:43.122Z,5.90
2022-12-28T09:23:10.581Z,5.98
2022-12-28T09:25:41.093Z,6.14
2022-12-28T09:28:11.663Z,6.11
2022-12-28T09:30:42.576Z,5.99
2022-12-28T09:33:31.502Z,6.07
2022-12-28T09:36:02.459Z,6.06
2022-12-28T09:38:33.404Z,6.28
2022-12-28T09:41:12.342Z,6.23
2022-12-28T09:43:44.078Z,6.28
2022-12-28T09:46:17.545Z,6.50
2022-12-28T09:48:51.019Z,6.57
2022-12-28T09:51:24.350Z,6.49
2022-12-28T09:53:55.147Z,6.48
2022-12-28T09:56:41.143Z,6.54
2022-12-28T09:59:14.778Z,6.70
2022-12-28T10:01:46.265Z,6.72
2022-12-28T10:04:18.225Z,6.77
2022-12-28T10:06:49.193Z,6.80
2022-12-28T10:09:31.669Z,6.67
2022-12-28T10:12:05.319Z,6.72
2022-12-28T10:14:37.227Z,6.85
2022-12-28T10:17:10.190Z,6.82
2022-12-28T10:19:44.322Z,6.82
2022-12-28T10:22:20.609Z,6.77
2022-12-28T10:24:51.988Z,7.00
2022-12-28T10:27:26.229Z,7.87
2022-12-28T10:29:59.902Z,8.32
2022-12-28T10:32:33.672Z,8.88
2022-12-28T10:35:05.773Z,8.08
2022-12-28T10:37:38.770Z,7.92
2022-12-28T10:40:12.588Z,7.56
2022-12-28T10:42:49.719Z,7.16
2022-12-28T10:45:27.317Z,7.25
2022-12-28T10:47:58.355Z,6.99
2022-12-28T10:50:47.717Z,7.20
2022-12-28T10:53:21.376Z,7.29
2022-12-28T10:56:02.624Z,7.14
2022-12-28T10:58:34.455Z,7.22
2022-12-28T11:01:21.928Z,7.43
2022-12-28T11:04:01.638Z,7.49
2022-12-28T11:06:35.597Z,7.56
2022-12-28T11:09:27.507Z,7.74
2022-12-28T11:12:17.736Z,7.61
2022-12-28T11:14:52.327Z,7.74
2022-12-28T11:17:25.793Z,7.79
2022-12-28T11:20:11.018Z,7.72
2022-12-28T11:22:41.562Z,7.61
2022-12-28T11:25:19.699Z,7.54
2022-12-28T11:27:50.613Z,7.69
2022-12-28T11:30:23.854Z,7.68
2022-12-28T11:32:59.744Z,7.76
2022-12-28T11:35:33.386Z,7.70
2022-12-28T11:38:06.313Z,7.66
2022-12-28T11:40:52.626Z,7.70
2022-12-28T11:43:39.926Z,7.64
2022-12-28T11:46:22.678Z,7.68
2022-12-28T11:49:00.011Z,7.77
2022-12-28T11:51:32.690Z,7.72
2022-12-28T11:54:24.150Z,7.81
2022-12-28T11:56:57.665Z,7.95
2022-12-28T11:59:38.497Z,8.00
2022-12-28T12:02:22.296Z,8.08
2022-12-28T12:04:53.082Z,8.02
2022-12-28T12:07:31.765Z,7.91
2022-12-28T12:10:17.010Z,7.85
2022-12-28T12:12:54.141Z,7.84
2022-12-28T12:15:28.746Z,7.86
2022-12-28T12:18:05.476Z,7.86
2022-12-28T12:21:01.493Z,7.88
2022-12-28T12:23:40.543Z,7.86
2022-12-28T12:26:32.761Z,7.94
2022-12-28T12:29:14.981Z,8.24
2022-12-28T12:31:53.780Z,8.41
2022-12-28T12:34:51.789Z,8.54
2022-12-28T12:37:56.784Z,8.50
2022-12-28T12:40:57.929Z,8.57
2022-12-28T12:43:58.379Z,8.42
2022-12-28T12:46:41.898Z,8.56
2022-12-28T12:49:27.957Z,8.43
2022-12-28T12:52:08.054Z,8.60
2022-12-28T12:54:47.657Z,8.60
2022-12-28T12:57:21.604Z,8.64
2022-12-28T13:00:01.106Z,8.73
2022-12-28T13:02:53.163Z,8.63
2022-12-28T13:05:29.575Z,8.66
2022-12-28T13:08:05.230Z,8.70
2022-12-28T13:10:39.538Z,8.62
2022-12-28T13:13:13.401Z,8.82
2022-12-28T13:15:45.729Z,8.74
2022-12-28T13:20:55.726Z,8.78
2022-12-28T13:23:28.971Z,8.82
2022-12-28T13:26:04.782Z,8.77
2022-12-28T13:28:38.617Z,8.72
2022-12-28T13:31:33.416Z,8.66
2022-12-28T13:34:16.313Z,8.60
2022-12-28T13:36:56.806Z,8.64
2022-12-28T13:39:36.912Z,8.68
2022-12-28T13:42:09.212Z,8.62
2022-12-28T13:44:48.551Z,8.70
2022-12-28T13:47:28.192Z,8.82
2022-12-28T13:50:14.284Z,8.86
2022-12-28T13:53:06.543Z,8.76
2022-12-28T13:55:46.111Z,8.88
2022-12-28T13:58:24.698Z,8.70
2022-12-28T14:01:00.016Z,8.62
2022-12-28T14:03:35.916Z,8.52
2022-12-28T14:06:05.255Z,8.40
2022-12-28T14:08:39.371Z,8.50
2022-12-28T14:11:11.034Z,8.26
2022-12-28T14:13:42.423Z,8.20
2022-12-28T14:16:13.455Z,8.28
2022-12-28T14:18:45.825Z,8.40
2022-12-28T14:21:18.166Z,8.30
2022-12-28T14:23:50.243Z,8.18
2022-12-28T14:26:23.024Z,8.17
2022-12-28T14:28:55.476Z,8.24
2022-12-28T14:31:29.669Z,8.36
2022-12-28T14:34:05.457Z,8.26
2022-12-28T14:36:50.523Z,8.30
2022-12-28T14:39:35.875Z,8.29
2022-12-28T14:42:09.334Z,8.28
2022-12-28T14:44:41.768Z,8.23
2022-12-28T14:47:36.647Z,8.34
2022-12-28T14:50:28.399Z,8.10
2022-12-28T14:53:08.356Z,8.22
2022-12-28T14:55:45.581Z,8.28
2022-12-28T14:58:23.959Z,8.26
2022-12-28T15:01:04.856Z,8.32
2022-12-28T15:03:56.758Z,8.24
2022-12-28T15:06:32.888Z,8.41
2022-12-28T15:09:05.205Z,8.38
2022-12-28T15:11:35.680Z,8.31
2022-12-28T15:14:06.283Z,8.18
2022-12-28T15:16:41.744Z,8.19
2022-12-28T15:19:12.322Z,8.11
2022-12-28T15:21:43.945Z,8.14
2022-12-28T15:24:18.069Z,7.88
2022-12-28T15:26:47.280Z,7.93
2022-12-28T15:29:32.153Z,8.00
2022-12-28T15:31:50.389Z,7.98
2022-12-28T15:34:21.349Z,8.08
2022-12-28T15:36:52.672Z,8.02
2022-12-28T15:39:25.037Z,8.07
2022-12-28T15:41:55.729Z,8.04
2022-12-28T15:44:28.091Z,7.71
2022-12-28T15:46:58.619Z,7.73
2022-12-28T15:49:29.284Z,7.66
2022-12-28T15:51:59.937Z,7.68
2022-12-28T15:54:30.466Z,7.76
2022-12-28T15:57:00.954Z,7.81
2022-12-28T15:59:31.687Z,7.73
2022-12-28T16:02:02.477Z,7.94
2022-12-28T16:04:34.650Z,7.88
2022-12-28T16:07:05.243Z,7.92
2022-12-28T16:09:36.028Z,8.01
2022-12-28T16:12:06.818Z,8.00
2022-12-28T16:14:37.377Z,8.00
2022-12-28T16:17:07.742Z,8.03
2022-12-28T16:19:39.564Z,7.96
2022-12-28T16:22:11.640Z,8.10
2022-12-28T16:24:42.412Z,7.98
2022-12-28T16:27:16.840Z,8.06
2022-12-28T16:29:53.943Z,8.00
2022-12-28T16:32:23.318Z,8.08
2022-12-28T16:34:56.697Z,8.04
2022-12-28T16:37:27.411Z,8.03
2022-12-28T16:39:57.892Z,8.06
2022-12-28T16:42:28.302Z,8.23
2022-12-28T16:45:00.336Z,8.33
2022-12-28T16:47:34.709Z,8.24
2022-12-28T16:50:06.484Z,8.33
2022-12-28T16:52:37.852Z,8.35
2022-12-28T16:55:08.689Z,8.25
2022-12-28T16:57:39.636Z,8.44
2022-12-28T17:00:12.486Z,8.50
2022-12-28T17:02:48.043Z,8.28
2022-12-28T17:05:25.779Z,8.40
2022-12-28T17:07:58.997Z,8.24
2022-12-28T17:10:30.184Z,8.40
2022-12-28T17:13:00.802Z,8.35
2022-12-28T17:15:31.505Z,8.37
2022-12-28T17:18:02.237Z,8.28
2022-12-28T17:20:33.149Z,8.49
2022-12-28T17:23:03.663Z,8.44
2022-12-28T17:25:35.763Z,8.44
2022-12-28T17:28:06.236Z,8.26
2022-12-28T17:30:39.809Z,8.22
2022-12-28T17:33:11.588Z,8.18
2022-12-28T17:35:44.847Z,8.04
2022-12-28T17:38:17.320Z,8.02
2022-12-28T17:40:49.133Z,8.03
2022-12-28T17:43:21.023Z,7.86
2022-12-28T17:45:51.996Z,7.97
2022-12-28T17:48:26.039Z,8.00
2022-12-28T17:50:58.649Z,8.09
2022-12-28T17:53:31.804Z,8.08
2022-12-28T17:56:04.739Z,8.14
2022-12-28T17:58:38.710Z,8.05
2022-12-28T18:01:10.395Z,8.23
2022-12-28T18:03:41.018Z,8.04
2022-12-28T18:06:13.448Z,8.16
2022-12-28T18:08:44.128Z,8.19
2022-12-28T18:11:17.833Z,8.19
2022-12-28T18:13:48.621Z,8.21
2022-12-28T18:16:21.286Z,8.23
2022-12-28T18:18:52.013Z,8.10
2022-12-28T18:21:27.632Z,8.14
2022-12-28T18:24:01.051Z,7.89
2022-12-28T18:26:31.711Z,7.90
2022-12-28T18:29:05.729Z,7.94
2022-12-28T18:31:36.298Z,8.06
2022-12-28T18:34:07.425Z,8.04
2022-12-28T18:36:39.380Z,8.02
2022-12-28T18:39:10.806Z,8.28
2022-12-28T18:41:41.497Z,8.23
2022-12-28T18:44:12.422Z,8.12
2022-12-28T18:46:42.942Z,8.20
2022-12-28T18:49:13.389Z,8.32
2022-12-28T18:51:44.983Z,8.27
2022-12-28T18:54:15.599Z,8.26
2022-12-28T18:56:46.406Z,8.16
2022-12-28T18:59:17.969Z,8.31
2022-12-28T19:04:21.600Z,8.04
2022-12-28T19:06:52.764Z,8.10
2022-12-28T19:09:23.706Z,8.06
2022-12-28T19:11:54.289Z,7.94
2022-12-28T19:14:26.295Z,7.92
2022-12-28T19:16:58.133Z,8.04
2022-12-28T19:19:28.647Z,7.90
2022-12-28T19:21:59.311Z,7.87
2022-12-28T19:24:30.357Z,7.76
2022-12-28T19:27:00.951Z,7.78
2022-12-28T19:29:32.260Z,7.70
2022-12-28T19:32:02.741Z,7.73
2022-12-28T19:34:33.335Z,7.77
2022-12-28T19:37:03.827Z,7.77
2022-12-28T19:39:34.506Z,7.66
2022-12-28T19:42:05.127Z,7.55
2022-12-28T19:44:35.557Z,7.56
2022-12-28T19:47:06.218Z,7.52
2022-12-28T19:49:38.092Z,7.62
2022-12-28T19:52:09.129Z,7.42
2022-12-28T19:54:40.698Z,7.44
2022-12-28T19:57:11.279Z,7.36
2022-12-28T19:59:43.028Z,7.31
2022-12-28T20:02:13.487Z,7.32
2022-12-28T20:04:44.313Z,7.43
2022-12-28T20:07:17.120Z,7.38
2022-12-28T20:09:50.726Z,7.34
2022-12-28T20:12:23.030Z,7.33
2022-12-28T20:14:53.711Z,7.29
2022-12-28T20:17:26.461Z,7.36
2022-12-28T20:19:57.654Z,7.24
2022-12-28T20:22:28.098Z,7.31
2022-12-28T20:24:58.636Z,7.35
2022-12-28T20:27:30.839Z,7.31
2022-12-28T20:30:03.067Z,7.32
2022-12-28T20:32:33.520Z,7.32
2022-12-28T20:35:06.996Z,7.23
2022-12-28T20:37:39.397Z,7.26
2022-12-28T20:40:10.921Z,7.29
2022-12-28T20:43:01.857Z,7.30
2022-12-28T20:45:35.288Z,7.29
2022-12-28T20:48:06.403Z,7.20
2022-12-28T20:50:38.441Z,7.23
2022-12-28T20:53:12.789Z,7.22
2022-12-28T20:55:43.697Z,7.28
2022-12-28T20:58:14.060Z,7.26
2022-12-28T21:00:47.312Z,7.26
2022-12-28T21:03:18.827Z,7.21
2022-12-28T21:05:52.325Z,7.24
2022-12-28T21:08:26.077Z,7.24
2022-12-28T21:10:56.293Z,7.30
2022-12-28T21:13:28.434Z,7.24
2022-12-28T21:16:02.042Z,7.22
2022-12-28T21:18:35.945Z,7.30
2022-12-28T21:21:07.029Z,7.28
2022-12-28T21:23:37.435Z,7.28
2022-12-28T21:26:10.268Z,7.34
2022-12-28T21:28:40.636Z,7.44
2022-12-28T21:31:11.680Z,7.42
2022-12-28T21:33:42.788Z,7.38
2022-12-28T21:36:18.170Z,7.45
2022-12-28T21:38:51.412Z,7.42
2022-12-28T21:41:41.533Z,7.41
2022-12-28T21:44:15.261Z,7.40
2022-12-28T21:46:46.315Z,7.56
2022-12-28T21:49:17.014Z,7.49
2022-12-28T21:51:47.552Z,7.44
2022-12-28T21:54:20.617Z,7.54
2022-12-28T21:56:53.809Z,7.52
2022-12-28T21:59:26.465Z,7.44
2022-12-28T22:02:15.203Z,7.54
2022-12-28T22:05:04.064Z,7.53
2022-12-28T22:07:36.283Z,7.58
2022-12-28T22:10:25.445Z,7.62
2022-12-28T22:12:56.952Z,7.61
2022-12-28T22:15:48.802Z,7.60
2022-12-28T22:19:00.401Z,7.64
2022-12-28T22:20:59.159Z,7.67
2022-12-28T22:23:34.582Z,7.70
2022-12-28T22:26:03.534Z,7.74
2022-12-28T22:28:34.449Z,7.70
2022-12-28T22:31:06.656Z,7.70
2022-12-28T22:33:37.141Z,7.76
2022-12-28T22:36:22.418Z,7.81
2022-12-28T22:38:54.425Z,7.86
2022-12-28T22:41:25.060Z,7.83
2022-12-28T22:43:57.358Z,7.94
2022-12-28T22:46:27.992Z,8.04
2022-12-28T22:48:58.689Z,7.96
2022-12-28T22:51:29.309Z,8.02
2022-12-28T22:54:01.275Z,8.16
2022-12-28T22:56:32.384Z,8.07
2022-12-28T22:59:05.222Z,8.07
2022-12-28T23:01:38.178Z,8.03
2022-12-28T23:04:09.987Z,7.96
2022-12-28T23:06:40.855Z,7.90
2022-12-28T23:09:11.408Z,7.96
2022-12-28T23:11:41.949Z,7.88
2022-12-28T23:14:41.263Z,7.92
2022-12-28T23:17:11.048Z,7.93
2022-12-28T23:20:04.370Z,7.90
2022-12-28T23:22:55.809Z,7.76
2022-12-28T23:25:44.643Z,7.78
2022-12-28T23:28:17.851Z,7.70
2022-12-28T23:30:50.961Z,7.71
2022-12-28T23:33:21.441Z,7.81
2022-12-28T23:35:53.448Z,7.86
2022-12-28T23:38:24.618Z,7.85
2022-12-28T23:40:56.640Z,7.85
2022-12-28T23:43:27.108Z,7.79
2022-12-28T23:45:57.745Z,7.68
2022-12-28T23:48:29.350Z,7.68
2022-12-28T23:51:04.932Z,7.72
2022-12-28T23:53:40.122Z,7.84
2022-12-28T23:56:11.163Z,7.92
2022-12-28T23:58:41.946Z,7.87
